• Join FlightAware (Why Join?)
  • Login
  • US Flag 
06:45AM EDT


 

Airport Tracker/Info


-or-


 

Live Flight TrackerFlight Track Log ✈ FLX146 ✈ 04-May-2013 ✈ KPSM - KMMU

Flight Track Log - Related Links

Times and Time Zones

All times are in EDT time to prevent confusion due to time zone crossing. See the FLX146 flight status page for this flight to view local times or setup timezone preferences in your user account.

Time Position Orientation Groundspeed Altitude Reporting Facility
EDT Latitude Longitude Course Direction KTS MPH feet Rate Location/Type
02:11AM 43.0833 -70.8500 180° South 111 128 700  Level KA90
02:11AM 43.0667 -70.8500 180° South 113 130 700 360 Level KA90
02:12AM 43.0500 -70.8833 236° Southwest 122 140 1,200 420 Climbing KA90
02:13AM 43.0333 -70.9333 246° West 135 155 1,600 360 Climbing KA90
02:14AM 43.0000 -70.9667 216° Southwest 141 162 2,000 420 Climbing KA90
02:15AM 42.9833 -71.0167 246° West 145 167 2,500 480 Climbing KA90
02:16AM 42.9500 -71.0500 216° Southwest 143 165 3,000 480 Climbing KA90
02:18AM 42.9167 -71.1000 228° Southwest 147 169 3,500 420 Climbing KA90
02:19AM 42.9000 -71.1500 246° West 152 175 3,900 420 Climbing KA90
02:20AM 42.8667 -71.2000 228° Southwest 154 177 4,400 420 Climbing KA90
02:20AM 42.8333 -71.2333 216° Southwest 158 182 4,800 420 Climbing KA90
02:21AM 42.8167 -71.2833 246° West 161 185 5,300 420 Climbing KA90
02:22AM 42.7833 -71.3333 228° Southwest 162 186 5,700 420 Climbing KA90
02:23AM 42.7500 -71.3833 228° Southwest 161 185 6,200 360 Climbing KA90
02:24AM 42.7333 -71.4333 233° Southwest 161 185 6,500 120 Climbing KA90
02:26AM 42.6922 -71.4825 221° Southwest 175 201 6,500  Level Boston Center
02:27AM 42.6572 -71.5394 230° Southwest 180 207 6,500  Level Boston Center
02:28AM 42.6286 -71.5878 231° Southwest 186 214 6,500 -60 Level Boston Center
02:29AM 42.5914 -71.6447 228° Southwest 186 214 6,400 -60 Descending Boston Center
02:30AM 42.5625 -71.6931 231° Southwest 186 214 6,400  Level Boston Center
02:31AM 42.5275 -71.7500 230° Southwest 186 214 6,500  Climbing Boston Center
02:31AM 42.5172 -71.7697 235° Southwest 183 211 6,400 -120 Descending Boston Center
02:32AM 42.4986 -71.7981 228° Southwest 186 214 6,400 60 Level Boston Center
02:32AM 42.4800 -71.8292 231° Southwest 183 211 6,500 60 Climbing Boston Center
02:33AM 42.4614 -71.8547 225° Southwest 186 214 6,500 -120 Level Boston Center
02:33AM 42.4469 -71.8803 233° Southwest 182 209 6,400  Descending Boston Center
02:34AM 42.4344 -71.9028 233° Southwest 186 214 6,500 60 Climbing Boston Center
02:34AM 42.4139 -71.9339 228° Southwest 181 208 6,500  Level Boston Center
02:35AM 42.3972 -71.9594 229° Southwest 186 214 6,500  Level Boston Center
02:35AM 42.3808 -71.9847 229° Southwest 181 208 6,500  Level Boston Center
02:36AM 42.3683 -72.0044 229° Southwest 186 214 6,500 -120 Level Boston Center
02:36AM 42.3497 -72.0383 233° Southwest 180 207 6,400  Descending Boston Center
02:37AM 42.3311 -72.0667 228° Southwest 192 221 6,500  Climbing Boston Center
02:37AM 42.3164 -72.0892 228° Southwest 180 207 6,400 -120 Descending Boston Center
02:38AM 42.3000 -72.1144 229° Southwest 187 215 6,400 60 Level Boston Center
02:38AM 42.2833 -72.1428 232° Southwest 179 206 6,500  Climbing Boston Center
02:39AM 42.2667 -72.1681 228° Southwest 187 215 6,400  Descending Boston Center
02:39AM 42.2522 -72.1933 232° Southwest 179 206 6,500 60 Climbing Boston Center
02:40AM 42.2356 -72.2186 228° Southwest 187 215 6,500  Level Boston Center
02:40AM 42.2189 -72.2467 231° Southwest 181 208 6,500  Level Boston Center
02:41AM 42.2022 -72.2719 228° Southwest 187 215 6,500  Level Boston Center
02:41AM 42.1856 -72.3000 231° Southwest 181 208 6,500  Level Boston Center
02:42AM 42.1711 -72.3225 229° Southwest 187 215 6,500  Level Boston Center
02:42AM 42.1544 -72.3506 231° Southwest 180 207 6,500  Level Boston Center
02:43AM 42.1378 -72.3756 228° Southwest 187 215 6,500  Level Boston Center
02:43AM 42.1211 -72.4008 228° Southwest 181 208 6,500  Level Boston Center
02:44AM 42.1067 -72.4289 235° Southwest 187 215 6,500  Level Boston Center
02:44AM 42.0878 -72.4569 228° Southwest 183 211 6,500  Level Boston Center
02:45AM 42.0731 -72.4792 228° Southwest 187 215 6,500  Level Boston Center
02:45AM 42.0564 -72.5072 231° Southwest 179 206 6,500  Level Boston Center
02:46AM 42.0439 -72.5267 229° Southwest 187 215 6,500  Level Boston Center
02:46AM 42.0231 -72.5603 230° Southwest 182 209 6,500  Level Boston Center
02:47AM 41.9897 -72.6133 230° Southwest 181 208 6,500  Level Boston Center
02:48AM 41.9564 -72.6661 230° Southwest 180 207 6,500  Level Boston Center
02:49AM 41.9269 -72.7136 230° Southwest 179 206 6,500  Level Boston Center
02:50AM 41.8936 -72.7664 230° Southwest 181 208 6,500  Level Boston Center
02:51AM 41.8578 -72.8192 228° Southwest 182 209 6,500  Level Boston Center
02:53AM 41.8134 -72.8729 222° Southwest  Level FlightAware Approximate
02:53AM 41.7950 -72.9192 222° Southwest 181 208 6,500  Level Boston Center
02:54AM 41.7572 -72.9744 228° Southwest 182 209 6,500  Level Boston Center
02:55AM 41.7236 -73.0242 228° Southwest 181 208 6,500  Level Boston Center
02:56AM 41.6900 -73.0739 228° Southwest 181 208 6,500  Level Boston Center
02:57AM 41.6564 -73.1236 228° Southwest 180 207 6,500 -180 Level Boston Center
02:58AM 41.6206 -73.1789 229° Southwest 186 214 6,200 -300 Descending Boston Center
02:59AM 41.5847 -73.2311 227° Southwest 191 220 5,900 -360 Descending Boston Center
03:01AM 41.5333 -73.3000 225° Southwest 191 220 5,400 -360 Descending New York TRACON
03:02AM 41.5000 -73.3667 236° Southwest 191 220 5,100 -360 Descending New York TRACON
03:03AM 41.4667 -73.4167 228° Southwest 188 216 4,700 -300 Descending New York TRACON
03:04AM 41.4333 -73.4667 228° Southwest 184 212 4,500 -300 Descending New York TRACON
03:06AM 41.3613 -73.5099 204° Southwest  Level FlightAware Approximate
03:08AM 41.3000 -73.6833 266° West 180 207 3,400  Level New York TRACON
03:09AM 41.2667 -73.7333 228° Southwest 179 206 3,100 -300 Descending New York TRACON
03:10AM 41.2333 -73.7833 228° Southwest 178 205 2,800 -300 Descending New York TRACON
03:11AM 41.2000 -73.8333 228° Southwest 181 208 2,500 -300 Descending New York TRACON
03:12AM 41.1667 -73.8833 228° Southwest 178 205 2,300 -180 Descending New York TRACON
03:13AM 41.2505 -73.8733 266° West  Level FlightAware Approximate
03:13AM 41.1333 -73.9167 217° Southwest 169 194 2,200  Level New York TRACON
03:14AM 41.1000 -73.9667 229° Southwest 168 193 2,300  Climbing New York TRACON
03:15AM 41.0833 -74.0167 246° West 172 198 2,300  Level New York TRACON
03:16AM 41.0667 -74.0667 246° West 173 199 2,300  Level New York TRACON
03:17AM 41.0333 -74.1167 229° Southwest 168 193 2,300 -180 Level New York TRACON
03:18AM 41.0167 -74.1833 252° West 174 200 2,000 -180 Descending New York TRACON
03:19AM 40.9833 -74.2333 229° Southwest 163 188 2,000  Level New York TRACON
03:21AM 40.9486 -74.3240 243° Southwest  Level FlightAware Approximate
03:28AM 40.7993 -74.4149 163° South  Level Estimated
03:29AM 40.7993 -74.4149 163° South  Level Estimated
03:30AM 40.7993 -74.4149 163° South  Level Estimated
03:31AM 40.7993 -74.4149 163° South  Level Estimated
03:32AM 40.7993 -74.4149 163° South  Level Estimated
03:33AM 40.7993 -74.4149 163° South  Level Estimated
03:34AM 40.7993 -74.4149 163° South  Level Estimated
03:35AM 40.7993 -74.4149 163° South  Level Estimated
03:36AM 40.7993 -74.4149 163° South  Level Estimated
03:37AM 40.7993 -74.4149 163° South  Level Estimated
03:38AM 40.7993 -74.4149 163° South  Level Estimated
03:39AM 40.7993 -74.4149 163° South  Level Estimated
03:40AM 40.7993 -74.4149 163° South  Level Estimated
03:41AM 40.7993 -74.4149 163° South  Level Estimated
03:42AM 40.7993 -74.4149 163° South  Level Estimated
03:43AM 40.7993 -74.4149 163° South  Level Estimated
03:44AM 40.7993 -74.4149 163° South  Level Estimated